Time;durP1;ratioP1;P1;durP2;ratioP2;P2;SDS_P1;SDS_P2;PMS_P1;PMS_P2;Temp;Humidity;BMP_temperature;BMP_pressure;BME280_temperature;BME280_humidity;BME280_pressure;Samples;Min_cycle;Max_cycle;Signal;HPM_P1;HPM_P2
2023/04/22 06:31:39;;;;;;;5.70;5.00;;;;;;;20.21;51.42;100919.84;108501;1260;61086;-86
2023/04/22 06:35:06;;;;;;;6.00;5.50;;;;;;;20.62;50.91;100919.31;108296;1260;73276;-85
2023/04/22 06:38:56;;;;;;;6.30;4.90;;;;;;;21.27;50.51;100918.00;107652;1270;71496;-89
2023/04/22 06:42:46;;;;;;;7.40;4.80;;;;;;;21.95;49.83;100913.04;107608;1269;71165;-89
2023/04/22 06:46:35;;;;;;;7.00;5.40;;;;;;;22.72;49.68;100908.92;107388;1273;61313;-89
2023/04/22 06:50:23;;;;;;;6.50;5.00;;;;;;;23.21;48.98;100905.83;106807;1280;61209;-88
2023/04/22 06:54:10;;;;;;;10.00;5.20;;;;;;;23.54;49.34;100903.13;106466;1289;73239;-88
2023/04/22 06:57:58;;;;;;;8.70;5.20;;;;;;;24.05;48.97;100903.42;106553;1283;68432;-88
2023/04/22 07:01:45;;;;;;;7.60;5.30;;;;;;;24.71;48.61;100906.45;106518;1288;71894;-88
2023/04/22 07:05:34;;;;;;;8.20;5.90;;;;;;;25.59;47.61;100904.13;108519;1257;59355;-88
2023/04/22 07:09:21;;;;;;;6.50;5.80;;;;;;;26.35;47.08;100899.58;108433;1260;61076;-88
2023/04/22 07:13:07;;;;;;;5.80;5.20;;;;;;;27.39;46.67;100898.99;108428;1261;75948;-88
2023/04/22 07:16:57;;;;;;;6.20;5.30;;;;;;;27.51;46.11;100893.20;108526;1260;67248;-89
2023/04/22 07:20:43;;;;;;;6.30;5.70;;;;;;;27.65;46.39;100888.71;108418;1261;71019;-88
2023/04/22 07:24:31;;;;;;;7.10;5.90;;;;;;;28.58;45.13;100892.94;108403;1262;61194;-88
2023/04/22 07:28:18;;;;;;;9.50;6.30;;;;;;;28.77;45.32;100894.69;109375;1262;59356;-89
2023/04/22 07:32:05;;;;;;;7.30;6.40;;;;;;;29.16;44.55;100892.08;108359;1264;74468;-88
2023/04/22 07:35:52;;;;;;;6.50;5.90;;;;;;;28.72;44.92;100887.34;108391;1267;67079;-88
2023/04/22 07:39:39;;;;;;;7.00;6.30;;;;;;;29.41;44.54;100886.48;108068;1269;73921;-88
2023/04/22 07:43:29;;;;;;;7.50;5.70;;;;;;;28.60;43.34;100878.27;108009;1268;61181;-89
2023/04/22 07:47:16;;;;;;;6.70;6.10;;;;;;;28.27;43.40;100875.85;108127;1268;62319;-88
2023/04/22 07:51:02;;;;;;;8.20;6.60;;;;;;;30.18;41.65;100876.73;108133;1267;74409;-88
2023/04/22 07:54:49;;;;;;;7.20;6.60;;;;;;;32.01;40.40;100877.42;107610;1272;67306;-88
2023/04/22 07:58:35;;;;;;;10.20;6.90;;;;;;;33.55;40.00;100877.70;107584;1273;73853;-88
2023/04/22 08:01:47;;;;;;;7.00;6.30;;;;;;;34.74;39.62;100870.23;107552;1277;61416;-88
2023/04/22 08:05:15;;;;;;;7.60;6.60;;;;;;;35.61;38.81;100867.11;107575;1272;61133;-88
2023/04/22 08:08:21;;;;;;;8.80;5.70;;;;;;;36.67;38.54;100870.58;107994;1270;72738;-88
2023/04/22 08:11:15;;;;;;;7.30;6.50;;;;;;;37.41;38.16;100870.52;107617;1270;67805;-88
2023/04/22 08:14:05;;;;;;;11.20;6.40;;;;;;;38.17;38.02;100866.82;107531;1271;71272;-88
2023/04/22 08:17:14;;;;;;;8.80;7.70;;;;;;;38.97;37.43;100872.06;107620;1270;59929;-86
2023/04/22 08:21:00;;;;;;;7.90;7.20;;;;;;;39.59;36.83;100866.83;107680;1270;61190;-88
2023/04/22 08:24:46;;;;;;;8.20;7.40;;;;;;;40.13;36.45;100867.23;107725;1270;74152;-88
2023/04/22 08:28:32;;;;;;;8.90;7.30;;;;;;;40.61;35.90;100862.95;107707;1270;67600;-88
2023/04/22 08:31:59;;;;;;;7.40;6.80;;;;;;;40.98;34.98;100859.91;108078;1264;71410;-88
2023/04/22 08:35:27;;;;;;;8.00;7.30;;;;;;;41.01;33.95;100856.09;108370;1263;59089;-88
2023/04/22 08:39:13;;;;;;;8.30;7.10;;;;;;;40.21;33.27;100856.16;108316;1264;59123;-88
2023/04/22 08:42:40;;;;;;;7.40;6.40;;;;;;;39.13;32.67;100851.31;108181;1263;73144;-88
2023/04/22 08:46:27;;;;;;;7.30;6.20;;;;;;;35.53;32.69;100845.59;108327;1261;67400;-88
2023/04/22 08:50:13;;;;;;;7.10;6.50;;;;;;;32.45;32.32;100840.50;108276;1261;71230;-88
2023/04/22 08:54:00;;;;;;;7.80;5.80;;;;;;;29.97;31.99;100835.20;108424;1260;61255;-88
2023/04/22 08:57:47;;;;;;;7.40;6.60;;;;;;;27.99;31.30;100828.05;108442;1261;59447;-88
2023/04/22 09:01:34;;;;;;;8.20;6.70;;;;;;;26.17;30.82;100827.23;108438;1260;73177;-88
2023/04/22 09:05:20;;;;;;;8.80;6.20;;;;;;;24.53;30.97;100832.29;108458;1265;69852;-87
2023/04/22 09:09:10;;;;;;;8.60;6.50;;;;;;;23.56;30.88;100825.05;108429;1260;72128;-88
2023/04/22 09:12:56;;;;;;;11.50;6.80;;;;;;;22.55;30.76;100823.39;107742;1269;61277;-88
2023/04/22 09:16:46;;;;;;;8.40;5.80;;;;;;;21.83;30.92;100821.98;107662;1268;60682;-88
2023/04/22 09:23:40;;;;;;;11.50;6.80;;;;;;;20.76;30.97;100821.33;108505;1260;67453;-88
2023/04/22 09:30:33;;;;;;;7.70;6.50;;;;;;;19.92;31.35;100812.31;108584;1260;63082;-88
2023/04/22 09:34:19;;;;;;;9.50;6.00;;;;;;;19.68;31.39;100819.54;107498;1271;61778;-87
2023/04/22 09:41:12;;;;;;;7.90;5.00;;;;;;;19.21;31.27;100810.81;108595;1259;67107;-87
2023/04/22 09:44:59;;;;;;;4.80;3.00;;;;;;;19.08;31.40;100802.94;108395;1259;72134;-87
2023/04/22 09:48:48;;;;;;;4.40;3.50;;;;;;;18.96;31.18;100800.83;108523;1259;61248;-87
2023/04/22 09:52:41;;;;;;;3.70;3.30;;;;;;;18.92;31.30;100799.52;108463;1260;61255;-87
2023/04/22 09:56:36;;;;;;;5.70;3.20;;;;;;;18.86;31.25;100797.48;108458;1260;73967;-87
2023/04/22 10:00:06;;;;;;;;;;;;;;;18.76;31.28;100789.20;107816;1271;68314;-88
2023/04/22 10:03:49;;;;;;;4.30;3.30;;;;;;;18.73;31.71;100786.06;107501;1273;70719;-88
2023/04/22 10:07:39;;;;;;;5.50;3.60;;;;;;;18.73;31.52;100784.15;106875;1282;61297;-87
2023/04/22 10:11:05;;;;;;;6.00;3.70;;;;;;;18.60;31.51;100778.84;108197;1260;61121;-88
2023/04/22 10:17:27;;;;;;;3.80;3.50;;;;;;;18.60;31.97;100767.11;108565;1259;67514;-87
2023/04/22 10:31:10;;;;;;;4.40;3.30;;;;;;;18.73;32.19;100760.05;108627;1260;66407;-87
2023/04/22 12:48:26;;;;;;;5.50;2.70;;;;;;;19.33;32.61;100642.04;108612;1261;61152;-87
2023/04/22 12:52:12;;;;;;;4.30;3.50;;;;;;;19.35;32.98;100635.15;108389;1261;73048;-87
2023/04/22 12:56:00;;;;;;;4.20;3.60;;;;;;;19.37;32.90;100633.30;108370;1262;68284;-87
2023/04/22 12:59:47;;;;;;;7.40;3.60;;;;;;;19.38;32.92;100633.06;108413;1260;71347;-87
2023/04/22 13:03:34;;;;;;;3.70;3.30;;;;;;;19.35;32.86;100628.48;108373;1259;61198;-87
2023/04/22 13:07:20;;;;;;;5.30;3.30;;;;;;;19.36;32.98;100625.31;107758;1267;61662;-87
2023/04/22 13:13:41;;;;;;;3.50;3.20;;;;;;;19.39;32.99;100614.83;108563;1259;67159;-87
2023/04/22 13:17:29;;;;;;;7.30;3.70;;;;;;;19.40;33.05;100612.66;108447;1259;71159;-87
2023/04/22 13:21:15;;;;;;;3.90;3.50;;;;;;;19.41;33.02;100605.98;108415;1260;59342;-87
2023/04/22 13:44:00;;;;;;;8.00;3.60;;;;;;;19.46;32.97;100593.28;108546;1260;71175;-87
2023/04/22 14:25:58;;;;;;;6.90;4.20;;;;;;;19.42;33.21;100554.14;108461;1260;61251;-85
2023/04/22 14:29:45;;;;;;;7.70;4.40;;;;;;;19.42;32.94;100550.15;108360;1261;61258;-85
2023/04/22 14:33:31;;;;;;;4.70;4.30;;;;;;;19.42;33.03;100545.77;108708;1259;72997;-85
2023/04/22 14:37:18;;;;;;;4.60;4.10;;;;;;;19.42;33.41;100546.66;108367;1258;69926;-85
2023/04/22 14:41:04;;;;;;;7.90;4.40;;;;;;;19.42;33.37;100544.04;108401;1261;72834;-85
2023/04/22 14:44:51;;;;;;;6.20;4.90;;;;;;;19.42;33.46;100545.42;108410;1260;62667;-85
2023/04/22 14:48:38;;;;;;;7.80;6.60;;;;;;;19.42;33.49;100541.23;108344;1259;59087;-85
2023/04/22 14:52:26;;;;;;;10.60;8.00;;;;;;;19.40;33.58;100538.72;108363;1260;73050;-85
2023/04/22 14:56:13;;;;;;;5.20;4.70;;;;;;;19.36;33.69;100537.37;108348;1261;67346;-85
2023/04/22 14:59:59;;;;;;;5.10;4.60;;;;;;;19.35;33.43;100537.95;107754;1269;71250;-85
2023/04/22 15:03:47;;;;;;;7.00;4.10;;;;;;;19.35;33.51;100534.30;107808;1269;61269;-84
2023/04/22 15:07:32;;;;;;;5.50;4.20;;;;;;;19.36;33.57;100534.73;107683;1269;61161;-85
2023/04/22 15:11:19;;;;;;;6.10;4.80;;;;;;;19.33;33.58;100530.67;107666;1268;74307;-85
2023/04/22 15:15:06;;;;;;;6.50;4.80;;;;;;;19.32;33.77;100526.39;107690;1270;70038;-85
2023/04/22 15:18:53;;;;;;;8.50;5.20;;;;;;;19.31;33.83;100523.14;107232;1277;71408;-85
2023/04/22 15:22:40;;;;;;;12.00;4.80;;;;;;;19.27;33.97;100520.17;107179;1277;59547;-85
2023/04/22 15:26:26;;;;;;;5.80;4.30;;;;;;;19.26;33.99;100517.96;107281;1277;61171;-85
2023/04/22 15:30:13;;;;;;;5.20;4.70;;;;;;;19.25;34.13;100515.39;107311;1276;74137;-85
2023/04/22 15:34:00;;;;;;;8.70;4.60;;;;;;;19.24;33.95;100515.14;107010;1284;66725;-85
2023/04/22 15:37:46;;;;;;;5.80;4.10;;;;;;;19.26;34.03;100509.24;107652;1279;72275;-85
2023/04/22 15:41:33;;;;;;;5.80;4.40;;;;;;;19.27;33.92;100512.19;107392;1279;61252;-85
2023/04/22 15:45:20;;;;;;;6.70;4.90;;;;;;;19.23;34.02;100511.33;107349;1273;59579;-84
2023/04/22 15:49:07;;;;;;;8.70;4.60;;;;;;;19.22;33.93;100510.90;107371;1276;73424;-85
2023/04/22 15:52:53;;;;;;;8.30;5.80;;;;;;;19.22;34.12;100508.27;107368;1274;66996;-85
2023/04/22 15:56:40;;;;;;;7.50;5.50;;;;;;;19.18;34.25;100510.91;107889;1267;71259;-85
2023/04/22 16:00:27;;;;;;;7.70;5.10;;;;;;;19.12;34.45;100506.66;108301;1267;59143;-85
2023/04/22 16:04:13;;;;;;;8.10;4.50;;;;;;;19.06;34.37;100501.39;107597;1270;61027;-85
2023/04/22 16:08:00;;;;;;;8.50;5.00;;;;;;;19.01;34.42;100498.38;107711;1270;73449;-85
2023/04/22 16:11:46;;;;;;;9.20;5.50;;;;;;;18.96;34.50;100495.30;107791;1270;67314;-85
2023/04/22 16:15:33;;;;;;;8.70;4.50;;;;;;;18.94;34.39;100494.54;107751;1270;71398;-85
2023/04/22 16:19:20;;;;;;;6.80;4.50;;;;;;;18.90;34.51;100491.09;107749;1270;59521;-85
2023/04/22 16:23:07;;;;;;;6.50;4.80;;;;;;;18.83;34.57;100491.09;107757;1270;59383;-84
2023/04/22 16:26:53;;;;;;;6.30;4.30;;;;;;;18.81;34.48;100488.75;107765;1269;74316;-85
2023/04/22 16:30:40;;;;;;;7.70;6.30;;;;;;;18.78;34.48;100490.30;107780;1270;67144;-85
2023/04/22 16:34:28;;;;;;;7.40;6.00;;;;;;;18.71;34.51;100485.77;107926;1270;71278;-86
2023/04/22 16:38:15;;;;;;;13.90;5.00;;;;;;;18.65;34.55;100479.13;107752;1268;59195;-86
2023/04/22 16:42:01;;;;;;;6.60;4.30;;;;;;;18.59;34.65;100473.67;108397;1264;61090;-86
2023/04/22 16:45:50;;;;;;;5.10;4.10;;;;;;;18.54;34.68;100469.73;108843;1260;73164;-85
2023/04/22 16:49:36;;;;;;;6.00;3.90;;;;;;;18.47;34.57;100466.40;108440;1260;69142;-85
2023/04/22 16:53:25;;;;;;;4.70;4.20;;;;;;;18.41;34.72;100464.07;107701;1269;70062;-86
2023/04/22 16:57:11;;;;;;;7.40;4.10;;;;;;;18.35;34.78;100462.84;107989;1271;61116;-86
2023/04/22 17:01:00;;;;;;;7.70;3.40;;;;;;;18.29;34.82;100456.70;107691;1270;61087;-86
2023/04/22 17:04:47;;;;;;;4.70;3.80;;;;;;;18.20;34.84;100459.92;107731;1271;77271;-86
2023/04/22 17:08:36;;;;;;;8.10;4.20;;;;;;;18.12;34.99;100456.86;107739;1270;67087;-85
2023/04/22 17:12:23;;;;;;;5.20;3.90;;;;;;;18.03;35.18;100451.71;107744;1269;72133;-86
2023/04/22 17:16:11;;;;;;;8.10;3.40;;;;;;;17.94;35.21;100448.67;107698;1269;61182;-86
2023/04/22 17:19:59;;;;;;;12.90;4.50;;;;;;;17.85;35.35;100448.58;107883;1272;61164;-86
2023/04/22 17:23:48;;;;;;;5.80;3.90;;;;;;;17.74;35.33;100443.73;107624;1268;73153;-88
2023/04/22 17:27:39;;;;;;;5.00;3.40;;;;;;;17.64;35.46;100444.56;107734;1268;68173;-89
2023/04/22 17:31:26;;;;;;;5.20;3.80;;;;;;;17.53;35.59;100442.81;108222;1264;74581;-90
2023/04/22 17:35:13;;;;;;;4.90;4.00;;;;;;;17.43;35.54;100447.48;108068;1264;59957;-88
2023/04/22 17:39:00;;;;;;;9.50;4.10;;;;;;;17.30;35.69;100441.80;108074;1264;61401;-88
2023/04/22 17:42:46;;;;;;;5.80;3.30;;;;;;;17.18;35.83;100441.65;108047;1264;73053;-88
2023/04/22 17:46:33;;;;;;;7.40;4.30;;;;;;;17.06;35.79;100442.77;108096;1264;67154;-87
2023/04/22 17:50:22;;;;;;;4.10;3.60;;;;;;;16.91;35.85;100441.86;108054;1264;71464;-87
2023/04/22 17:54:08;;;;;;;9.70;3.60;;;;;;;16.77;35.80;100439.01;108081;1264;61255;-87
2023/04/22 17:57:55;;;;;;;7.50;6.70;;;;;;;16.63;36.05;100443.97;107387;1274;61229;-87
2023/04/22 18:01:44;;;;;;;9.10;5.30;;;;;;;16.49;36.24;100443.52;107502;1273;72250;-87
2023/04/22 18:05:44;;;;;;;;;;;;;;;;;;;;;
2023/04/22 18:09:18;;;;;;;7.30;4.60;;;;;;;16.23;36.48;100445.17;107323;1274;71226;-89
2023/04/22 18:13:06;;;;;;;5.60;4.50;;;;;;;16.07;36.62;100450.55;106710;1286;61366;-88
2023/04/22 18:16:53;;;;;;;5.80;4.30;;;;;;;15.92;36.81;100447.54;106402;1280;170449;-89
2023/04/22 18:20:40;;;;;;;6.10;4.20;;;;;;;15.78;36.86;100450.37;106173;1285;74929;-89
2023/04/22 18:24:27;;;;;;;9.80;5.70;;;;;;;15.62;36.98;100456.56;105966;1294;68237;-88
2023/04/22 18:28:14;;;;;;;8.30;5.60;;;;;;;15.46;37.24;100458.39;105933;1290;71887;-88
2023/04/22 18:32:01;;;;;;;13.20;8.90;;;;;;;15.28;37.39;100457.17;105974;1292;60060;-90
2023/04/22 18:35:48;;;;;;;11.30;7.20;;;;;;;15.14;37.58;100457.32;106518;1285;60348;-89
2023/04/22 18:39:35;;;;;;;17.80;10.00;;;;;;;15.03;37.80;100461.41;106570;1285;76521;-89
2023/04/22 18:43:22;;;;;;;18.00;8.90;;;;;;;14.93;37.97;100466.30;106559;1287;68150;-88
2023/04/22 18:47:08;;;;;;;14.10;7.60;;;;;;;14.81;38.05;100465.86;107096;1280;72160;-89
2023/04/22 18:50:55;;;;;;;16.70;10.50;;;;;;;14.65;38.24;100467.98;107635;1268;61240;-89
2023/04/22 18:54:42;;;;;;;17.60;10.20;;;;;;;14.53;38.34;100469.81;107797;1269;59326;-86
2023/04/22 18:58:29;;;;;;;24.40;13.30;;;;;;;14.39;38.49;100469.08;107818;1269;73241;-86
2023/04/22 19:02:16;;;;;;;21.00;11.30;;;;;;;14.26;38.57;100471.25;108464;1260;67322;-88
2023/04/22 19:06:02;;;;;;;25.20;11.70;;;;;;;14.07;38.83;100468.41;108641;1260;70997;-89
2023/04/22 19:09:49;;;;;;;19.60;13.70;;;;;;;13.87;38.88;100465.44;107846;1269;59271;-89
2023/04/22 19:18:32;;;;;;;23.80;14.80;;;;;;;13.68;39.42;100463.43;108690;1260;65669;-86
2023/04/22 19:22:19;;;;;;;25.40;16.00;;;;;;;13.53;39.53;100467.52;108367;1262;71837;-86
2023/04/22 19:26:08;;;;;;;29.10;16.30;;;;;;;13.47;39.74;100464.11;107857;1273;58699;-86
2023/04/22 19:29:52;;;;;;;34.70;17.80;;;;;;;13.40;39.87;100461.71;107737;1270;61260;-86
2023/04/22 19:33:39;;;;;;;36.70;18.90;;;;;;;13.31;39.96;100459.23;107790;1271;73047;-86
2023/04/22 19:37:26;;;;;;;32.50;18.70;;;;;;;13.20;40.09;100460.39;107788;1273;68371;-86
2023/04/22 19:41:13;;;;;;;33.10;18.50;;;;;;;13.09;40.22;100453.77;107760;1271;72330;-87
2023/04/22 19:45:00;;;;;;;42.10;20.40;;;;;;;12.97;40.47;100459.16;107814;1271;61024;-86
2023/04/22 19:48:47;;;;;;;35.40;19.00;;;;;;;12.87;40.64;100458.22;107755;1270;59172;-87
2023/04/22 19:52:34;;;;;;;40.70;24.70;;;;;;;12.76;40.71;100457.66;107206;1279;73287;-86
2023/04/22 19:56:21;;;;;;;45.00;24.80;;;;;;;12.65;40.86;100459.54;107085;1282;67319;-86
2023/04/22 20:00:07;;;;;;;42.80;23.60;;;;;;;12.55;41.04;100455.11;107002;1284;71639;-86
2023/04/22 20:03:54;;;;;;;41.60;22.90;;;;;;;12.47;41.11;100454.84;106449;1284;59671;-86
2023/04/22 20:07:41;;;;;;;36.80;22.20;;;;;;;12.38;41.14;100451.27;106261;1287;61202;-86
2023/04/22 20:11:28;;;;;;;42.30;22.40;;;;;;;12.26;41.29;100447.61;106273;1288;72419;-86
2023/04/22 20:15:14;;;;;;;37.50;22.00;;;;;;;12.15;41.46;100449.27;105678;1292;68093;-86
2023/04/22 20:19:01;;;;;;;42.10;20.80;;;;;;;12.05;41.76;100444.69;105075;1299;72084;-86
2023/04/22 20:22:48;;;;;;;51.10;23.70;;;;;;;11.96;41.81;100445.27;104576;1305;61327;-86
2023/04/22 20:26:37;;;;;;;38.90;22.60;;;;;;;11.89;42.00;100439.75;104596;1305;61212;-86
2023/04/22 20:30:24;;;;;;;45.10;25.10;;;;;;;11.77;42.04;100440.18;104976;1300;74014;-86
2023/04/22 20:34:11;;;;;;;53.30;28.60;;;;;;;11.69;42.23;100439.86;104545;1306;69147;-86
2023/04/22 20:37:59;;;;;;;86.50;42.90;;;;;;;11.65;42.23;100440.98;104740;1302;71341;-86
